Pagrindinis puslapis
METAR-TAF:

METAR-TAF

Oro uostai :

Maršalo Salų tarptautinis oro uostas

Madžūras, Maršalo salos

platuma: 07-04N, ilguma: 171-17E, Aukštis: 2 m

Dabartinis oras

Ataskaita buvo paskelbta 58 minutes, ne 03:59 UTC
Vėjas 16 kt iš Pietvakarių
Temperatūra 28°C
Drėgmė 84%
Slėgis 1009 hPa
Matomumas: 24.1 km
Išsisklaidę debesys ne aukštis 1400 ft
Su prošvaistėmis ne aukštis 5000 ft
Su prošvaistėmis ne aukštis 12000 ft
Apsiniaukę ne aukštis 30000 ft

METAR: PKMJ 180359Z 23016KT 15SM SCT014 BKN050 BKN120 OVC300 28/25 A2979

Laikas: 16:57 (04:57 UTC)

Prognozė

Ataskaita buvo paskelbta 1 valandą ir 17 minutes, ne 03:40 UTC
Prognozė galioja nuo 18 metu 04 UTC su 18 metu 24 UTC
Vėjas 11 kt iš Vakarų
Matomumas: 10 km
Išsisklaidę debesys ne aukštis 1400 ft
Su prošvaistėmis ne aukštis 5000 ft
Su prošvaistėmis ne aukštis 13000 ft
Liūtis kaimynystėje

TAF: PKMJ 180340Z 1804/1824 26011KT P6SM VCSH SCT014 BKN050 BKN130

Orai ataskaitas ir orų prognozės (METAR, TAF).

turimą stotys yra geltonos ir raudonos taškus žemėlapyje.

Perkelti pele per norėdami pamatyti stoties vardą.

Tada spustelėkite, norėdami matyti oro stebėjimo ir prognozės.

Norėdami pakeisti žemėlapį: spustelėkite ant žalios mygtukų su juodo kryžiaus žemyn,; žalią mygtuką su brūkšneliu, jei norite nutolinti; arba žalių rodyklių gretimoms žemėlapius.


METAR-TAF: